LEZL Airport Information

Runway Information
Runway 09 Length 11024 ft width 148 ft
Elevation 83 ft Threshold 0 ft Heading 90
Runway 27 Length 11024 ft Width 148 ft
Elevation 111 ft Threshold 0 ft Heading 270
Airport Frequencies
Type APP Name APP Frequency 120 MHZ
Type ATIS Name ATIS Frequency 118.175 MHZ
Type GND Name GND Frequency 121.7 MHZ
Type TWR Name TWR Frequency 118.1 MHZ
Airport Navaids
Type NDB Name Sevilla Frequency 420 KHZ
Type VOR-DME Name Sevilla Frequency 113700 KHZ
Airport Weather Information & NOTAM
ADDS - METARS form results

(2343 UTC 25 May 2022)
Data provider http://aviationweather.gov/metar/data/
 
METAR text: LEZL 252330Z AUTO 04003KT 010V100 CAVOK 18/05 Q1019
Conditions at: LEZL (SEVILLA (CIV/MIL, ES) observed 2330 UTC 25 May 2022
Temperature: 18.0°C (64°F)
Dewpoint: 5.0°C (41°F) [RH = 42%]
Pressure (altimeter): 30.09 inches Hg (1019.0 mb)
Winds: from the NE (40 degrees) at 3 MPH (3 knots; 1.5 m/s)
Visibility: 6 or more miles (10+ km)
Ceiling: ceiling and visibility are OK
Clouds: unknown
Weather: no significant weather observed at this time

METAR text: LEZL 252300Z 03003KT CAVOK 18/05 Q1019 NOSIG
Conditions at: LEZL (SEVILLA (CIV/MIL, ES) observed 2300 UTC 25 May 2022
Temperature: 18.0°C (64°F)
Dewpoint: 5.0°C (41°F) [RH = 42%]
Pressure (altimeter): 30.09 inches Hg (1019.0 mb)
Winds: from the NNE (30 degrees) at 3 MPH (3 knots; 1.5 m/s)
Visibility: 6 or more miles (10+ km)
Ceiling: ceiling and visibility are OK
Clouds: unknown
Weather: no significant weather observed at this time

Forecast for: LEZL (SEVILLA (CIV/MIL, ES)
Text: TAF LEZL 252000Z 2521/2621 06007KT CAVOK TX32/2615Z TN15/2606Z
Forecast period: 2100 UTC 25 May 2022 to 2100 UTC 26 May 2022
Forecast type: FROM: standard forecast or significant change
Winds: from the ENE (60 degrees) at 8 MPH (7 knots; 3.6 m/s)
Visibility: 6 or more miles (10+ km)
Ceiling: unknown
Clouds: missing
Weather: no significant weather forecast for this period